createdAt,value
2018-08-16T00:01:38.276Z,51.90
2018-08-16T00:04:04.259Z,51.91
2018-08-16T00:06:30.274Z,51.95
2018-08-16T00:08:56.288Z,51.91
2018-08-16T00:11:22.290Z,51.89
2018-08-16T00:13:48.307Z,51.86
2018-08-16T00:16:14.293Z,51.86
2018-08-16T00:18:40.298Z,51.88
2018-08-16T00:21:06.329Z,51.87
2018-08-16T00:23:32.338Z,51.90
2018-08-16T00:25:58.319Z,51.86
2018-08-16T00:28:24.302Z,51.90
2018-08-16T00:30:50.283Z,51.87
2018-08-16T00:33:16.269Z,51.84
2018-08-16T00:35:42.247Z,51.88
2018-08-16T00:38:08.260Z,51.82
2018-08-16T00:40:34.273Z,51.89
2018-08-16T00:43:00.280Z,51.84
2018-08-16T00:45:26.258Z,51.86
2018-08-16T00:47:52.275Z,51.85
2018-08-16T00:50:18.266Z,51.90
2018-08-16T00:52:44.280Z,51.88
2018-08-16T00:55:10.286Z,51.84
2018-08-16T00:57:36.271Z,51.88
2018-08-16T01:00:02.249Z,51.88
2018-08-16T01:02:28.237Z,51.85
2018-08-16T01:04:54.248Z,51.84
2018-08-16T01:07:20.221Z,51.86
2018-08-16T01:09:46.206Z,51.88
2018-08-16T01:12:12.185Z,51.90
2018-08-16T01:14:38.160Z,51.91
2018-08-16T01:17:04.144Z,51.89
2018-08-16T01:19:30.156Z,51.90
2018-08-16T01:21:56.130Z,51.90
2018-08-16T01:24:22.106Z,51.94
2018-08-16T01:26:48.084Z,51.91
2018-08-16T01:29:14.064Z,51.94
2018-08-16T01:31:40.038Z,51.90
2018-08-16T01:34:06.018Z,51.91
2018-08-16T01:36:32.002Z,51.92
2018-08-16T01:38:57.996Z,51.91
2018-08-16T01:41:23.986Z,51.89
2018-08-16T01:43:49.967Z,51.79
2018-08-16T01:46:15.941Z,51.88
2018-08-16T01:48:41.921Z,51.83
2018-08-16T01:51:07.911Z,51.88
2018-08-16T01:53:33.907Z,51.86
2018-08-16T01:55:59.898Z,51.80
2018-08-16T01:58:25.880Z,51.84
2018-08-16T02:00:51.870Z,51.85
2018-08-16T02:03:17.856Z,51.88
2018-08-16T02:05:43.843Z,51.83
2018-08-16T02:08:09.869Z,51.83
2018-08-16T02:10:35.859Z,51.83
2018-08-16T02:13:01.829Z,51.80
2018-08-16T02:15:27.863Z,51.84
2018-08-16T02:17:53.841Z,51.81
2018-08-16T02:20:19.829Z,51.84
2018-08-16T02:22:45.809Z,51.82
2018-08-16T02:25:11.791Z,51.82
2018-08-16T02:27:37.828Z,51.80
2018-08-16T02:30:03.815Z,51.79
2018-08-16T02:32:29.794Z,51.80
2018-08-16T02:34:55.778Z,51.82
2018-08-16T02:37:21.756Z,51.82
2018-08-16T02:39:47.784Z,51.82
2018-08-16T02:42:13.744Z,51.83
2018-08-16T02:44:39.723Z,51.82
2018-08-16T02:47:05.702Z,51.80
2018-08-16T02:49:31.677Z,51.81
2018-08-16T02:51:57.662Z,51.80
2018-08-16T02:54:23.646Z,51.80
2018-08-16T02:56:49.620Z,51.80
2018-08-16T02:59:15.598Z,51.80
2018-08-16T03:01:41.582Z,51.82
2018-08-16T03:04:07.568Z,51.82
2018-08-16T03:06:33.556Z,51.81
2018-08-16T03:08:59.528Z,51.81
2018-08-16T03:11:25.513Z,51.80
2018-08-16T03:13:51.486Z,51.80
2018-08-16T03:16:17.475Z,51.81
2018-08-16T03:18:43.503Z,51.82
2018-08-16T03:21:09.488Z,51.82
2018-08-16T03:23:35.461Z,51.81
2018-08-16T03:26:01.437Z,51.79
2018-08-16T03:28:27.424Z,51.79
2018-08-16T03:30:53.406Z,51.80
2018-08-16T03:33:19.394Z,51.80
2018-08-16T03:35:45.369Z,51.84
2018-08-16T03:38:11.376Z,51.79
2018-08-16T03:40:37.356Z,51.82
2018-08-16T03:43:03.338Z,51.80
2018-08-16T03:45:29.327Z,51.78
2018-08-16T03:47:55.307Z,51.85
2018-08-16T03:50:21.280Z,51.86
2018-08-16T03:52:47.261Z,51.81
2018-08-16T03:55:13.252Z,51.82
2018-08-16T03:57:39.240Z,51.79
2018-08-16T04:00:05.220Z,51.82
2018-08-16T04:02:31.196Z,51.78
2018-08-16T04:04:57.172Z,51.81
2018-08-16T04:07:23.154Z,51.81
2018-08-16T04:09:49.138Z,51.78
2018-08-16T04:12:15.125Z,51.76
2018-08-16T04:14:41.105Z,51.69
2018-08-16T04:17:07.099Z,51.53
2018-08-16T04:19:33.088Z,51.40
2018-08-16T04:21:59.071Z,51.42
2018-08-16T04:24:25.056Z,51.43
2018-08-16T04:26:51.032Z,51.48
2018-08-16T04:29:17.114Z,51.43
2018-08-16T04:31:43.006Z,51.42
2018-08-16T04:34:08.973Z,51.46
2018-08-16T04:36:34.955Z,51.44
2018-08-16T04:39:00.928Z,51.45
2018-08-16T04:41:26.989Z,51.40
2018-08-16T04:43:52.920Z,51.41
2018-08-16T04:46:18.902Z,51.37
2018-08-16T04:48:44.882Z,51.38
2018-08-16T04:51:10.888Z,51.37
2018-08-16T04:53:36.902Z,51.36
2018-08-16T04:56:02.933Z,51.34
2018-08-16T04:58:29.049Z,51.34
2018-08-16T05:00:55.019Z,51.33
2018-08-16T05:03:20.994Z,51.29
2018-08-16T05:05:46.981Z,51.31
2018-08-16T05:08:12.967Z,51.33
2018-08-16T05:10:38.939Z,51.32
2018-08-16T05:13:04.950Z,51.25
2018-08-16T05:15:30.940Z,51.31
2018-08-16T05:17:56.922Z,51.26
2018-08-16T05:20:22.898Z,51.24
2018-08-16T05:22:48.881Z,51.24
2018-08-16T05:25:14.860Z,51.25
2018-08-16T05:27:40.837Z,51.21
2018-08-16T05:30:06.822Z,51.21
2018-08-16T05:32:32.806Z,51.24
2018-08-16T05:34:58.792Z,51.24
2018-08-16T05:37:24.823Z,51.20
2018-08-16T05:39:50.804Z,51.19
2018-08-16T05:42:16.782Z,51.17
2018-08-16T05:44:42.763Z,51.18
2018-08-16T05:47:08.742Z,51.14
2018-08-16T05:49:34.755Z,51.12
2018-08-16T05:52:00.729Z,51.11
2018-08-16T05:54:26.729Z,51.12
2018-08-16T05:56:52.704Z,51.13
2018-08-16T05:59:18.700Z,51.12
2018-08-16T06:01:44.695Z,51.14
2018-08-16T06:04:10.686Z,51.14
2018-08-16T06:06:36.662Z,51.07
2018-08-16T06:09:02.641Z,51.07
2018-08-16T06:11:28.622Z,51.13
2018-08-16T06:13:54.596Z,51.09
2018-08-16T06:16:20.587Z,51.09
2018-08-16T06:18:46.563Z,51.09
2018-08-16T06:21:12.547Z,51.10
2018-08-16T06:23:38.529Z,51.05
2018-08-16T06:26:04.512Z,51.08
2018-08-16T06:28:30.489Z,51.08
2018-08-16T06:30:56.547Z,51.11
2018-08-16T06:33:22.496Z,51.06
2018-08-16T06:35:48.472Z,51.09
2018-08-16T06:38:14.453Z,51.08
2018-08-16T06:40:40.436Z,51.08
2018-08-16T06:43:06.438Z,51.07
2018-08-16T06:45:32.551Z,51.06
2018-08-16T06:47:58.550Z,51.09
2018-08-16T06:50:24.543Z,51.07
2018-08-16T06:52:50.648Z,51.16
2018-08-16T06:55:16.621Z,51.06
2018-08-16T06:57:42.643Z,51.08
2018-08-16T07:00:08.613Z,51.08
2018-08-16T07:02:34.595Z,51.13
2018-08-16T07:05:00.648Z,51.10
2018-08-16T07:07:26.573Z,51.06
2018-08-16T07:09:52.547Z,51.10
2018-08-16T07:12:18.605Z,51.15
2018-08-16T07:14:44.518Z,51.05
2018-08-16T07:17:10.494Z,51.09
2018-08-16T07:19:36.473Z,51.07
2018-08-16T07:22:02.486Z,51.14
2018-08-16T07:24:28.531Z,51.14
2018-08-16T07:26:54.432Z,51.08
2018-08-16T07:29:20.415Z,51.11
2018-08-16T07:31:46.394Z,51.05
2018-08-16T07:34:12.371Z,51.13
2018-08-16T07:36:38.385Z,51.23
2018-08-16T07:39:04.364Z,51.15
2018-08-16T07:41:30.339Z,51.14
2018-08-16T07:43:56.321Z,51.16
2018-08-16T07:46:22.336Z,51.17
2018-08-16T07:48:48.277Z,51.26
2018-08-16T07:51:14.294Z,51.14
2018-08-16T07:53:40.252Z,51.22
2018-08-16T07:56:06.232Z,51.10
2018-08-16T07:58:32.291Z,51.16
2018-08-16T08:00:58.189Z,51.14
2018-08-16T08:03:24.192Z,51.17
2018-08-16T08:05:50.174Z,51.19
2018-08-16T08:08:16.151Z,51.17
2018-08-16T08:10:42.127Z,51.14
2018-08-16T08:13:08.103Z,51.23
2018-08-16T08:15:34.177Z,51.13
2018-08-16T08:18:00.065Z,51.21
2018-08-16T08:20:26.054Z,51.26
2018-08-16T08:22:52.038Z,51.10
2018-08-16T08:25:18.129Z,51.24
2018-08-16T08:27:44.044Z,51.06
2018-08-16T08:30:10.020Z,51.09
2018-08-16T08:32:35.999Z,51.10
2018-08-16T08:35:01.969Z,51.12
2018-08-16T08:37:27.951Z,51.13
2018-08-16T08:39:53.936Z,51.13
2018-08-16T08:42:19.927Z,51.08
2018-08-16T08:44:45.901Z,51.06
2018-08-16T08:47:11.902Z,51.09
2018-08-16T08:49:37.897Z,51.08
2018-08-16T08:52:03.870Z,51.10
2018-08-16T08:54:29.894Z,51.13
2018-08-16T08:56:55.866Z,51.13
2018-08-16T08:59:21.930Z,51.13
2018-08-16T09:01:47.823Z,51.18
2018-08-16T09:04:13.809Z,51.20
2018-08-16T09:06:39.789Z,51.18
2018-08-16T09:09:05.772Z,51.18
2018-08-16T09:11:31.757Z,51.20
2018-08-16T09:13:57.738Z,51.13
2018-08-16T09:16:23.719Z,51.08
2018-08-16T09:18:49.688Z,51.09
2018-08-16T09:21:15.665Z,51.15
2018-08-16T09:23:41.648Z,51.19
2018-08-16T09:26:07.627Z,51.12
2018-08-16T09:28:33.596Z,51.18
2018-08-16T09:30:59.596Z,51.17
2018-08-16T09:33:25.580Z,51.24
2018-08-16T09:35:51.563Z,51.12
2018-08-16T09:38:17.554Z,51.08
2018-08-16T09:40:43.563Z,51.02
2018-08-16T09:43:09.539Z,51.12
2018-08-16T09:45:35.603Z,51.12
2018-08-16T09:48:01.518Z,51.08
2018-08-16T09:50:27.488Z,51.04
2018-08-16T09:52:53.478Z,51.16
2018-08-16T09:55:19.455Z,51.10
2018-08-16T09:57:45.437Z,51.22
2018-08-16T10:00:11.414Z,51.11
2018-08-16T10:02:37.395Z,51.09
2018-08-16T10:05:03.375Z,51.15
2018-08-16T10:07:29.356Z,51.07
2018-08-16T10:09:55.371Z,51.25
2018-08-16T10:12:21.383Z,51.16
2018-08-16T10:14:47.364Z,51.09
2018-08-16T10:17:13.342Z,51.12
2018-08-16T10:19:39.318Z,51.13
2018-08-16T10:22:05.292Z,51.06
2018-08-16T10:24:31.293Z,51.04
2018-08-16T10:26:57.329Z,51.14
2018-08-16T10:29:23.247Z,51.07
2018-08-16T10:31:49.239Z,51.09
2018-08-16T10:34:15.252Z,51.09
2018-08-16T10:36:41.192Z,51.08
2018-08-16T10:39:07.174Z,51.11
2018-08-16T10:41:33.160Z,51.14
2018-08-16T10:43:59.143Z,51.07
2018-08-16T10:46:25.161Z,51.30
2018-08-16T10:48:51.109Z,51.16
2018-08-16T10:51:17.128Z,51.11
2018-08-16T10:53:43.137Z,51.09
2018-08-16T10:56:09.078Z,51.20
2018-08-16T10:58:35.100Z,51.00
2018-08-16T11:01:01.089Z,51.10
2018-08-16T11:03:27.093Z,51.13
2018-08-16T11:05:53.077Z,51.17
2018-08-16T11:08:19.054Z,51.04
2018-08-16T11:10:45.044Z,51.08
2018-08-16T11:13:11.035Z,51.01
2018-08-16T11:15:37.009Z,51.12
2018-08-16T11:18:03.015Z,51.14
2018-08-16T11:20:29.000Z,51.16
2018-08-16T11:22:54.980Z,51.17
2018-08-16T11:25:20.952Z,51.27
2018-08-16T11:27:46.935Z,51.11
2018-08-16T11:30:12.993Z,51.08
2018-08-16T11:32:38.961Z,51.17
2018-08-16T11:35:04.986Z,51.07
2018-08-16T11:37:30.951Z,51.13
2018-08-16T11:39:56.938Z,51.18
2018-08-16T11:42:23.024Z,51.14
2018-08-16T11:44:48.998Z,51.13
2018-08-16T11:47:14.972Z,51.09
2018-08-16T11:49:41.013Z,51.12
2018-08-16T11:52:07.002Z,51.04
2018-08-16T11:54:32.979Z,51.03
2018-08-16T11:56:58.958Z,51.11
2018-08-16T11:59:24.948Z,51.00
2018-08-16T12:01:50.932Z,51.02
2018-08-16T12:04:16.965Z,51.09
2018-08-16T12:06:42.940Z,51.17
2018-08-16T12:09:08.921Z,51.18
2018-08-16T12:11:34.914Z,51.05
2018-08-16T12:14:00.893Z,51.11
2018-08-16T12:16:26.866Z,51.10
2018-08-16T12:18:52.852Z,51.22
2018-08-16T12:21:18.837Z,51.10
2018-08-16T12:23:44.847Z,51.05
2018-08-16T12:26:10.798Z,51.01
2018-08-16T12:28:36.787Z,51.03
2018-08-16T12:31:02.778Z,51.04
2018-08-16T12:33:28.773Z,51.03
2018-08-16T12:35:54.744Z,51.04
2018-08-16T12:38:20.726Z,51.09
2018-08-16T12:40:49.905Z,51.04
2018-08-16T12:43:12.677Z,51.08
2018-08-16T12:45:38.650Z,51.19
2018-08-16T12:48:04.639Z,51.02
2018-08-16T12:50:30.624Z,51.13
2018-08-16T12:52:56.612Z,51.01
2018-08-16T12:55:22.650Z,51.06
2018-08-16T12:57:48.626Z,51.25
2018-08-16T13:00:14.604Z,51.06
2018-08-16T13:02:40.624Z,51.03
2018-08-16T13:05:06.609Z,51.03
2018-08-16T13:07:32.582Z,51.05
2018-08-16T13:09:58.596Z,51.08
2018-08-16T13:12:24.576Z,51.13
2018-08-16T13:14:50.601Z,51.25
2018-08-16T13:17:16.564Z,51.00
2018-08-16T13:19:42.543Z,51.06
2018-08-16T13:22:08.522Z,51.06
2018-08-16T13:24:34.552Z,51.08
2018-08-16T13:27:00.533Z,51.08
2018-08-16T13:29:26.516Z,51.10
2018-08-16T13:31:52.499Z,51.00
2018-08-16T13:34:18.473Z,51.11
2018-08-16T13:36:44.458Z,51.05
2018-08-16T13:39:10.445Z,51.08
2018-08-16T13:41:36.432Z,51.08
2018-08-16T13:44:02.412Z,51.17
2018-08-16T13:46:28.396Z,51.19
2018-08-16T13:48:54.468Z,51.02
2018-08-16T13:51:20.354Z,51.16
2018-08-16T13:53:46.328Z,51.18
2018-08-16T13:56:12.308Z,51.02
2018-08-16T13:58:38.301Z,51.06
2018-08-16T14:01:04.287Z,51.20
2018-08-16T14:03:30.281Z,51.00
2018-08-16T14:05:56.257Z,51.04
2018-08-16T14:08:22.242Z,51.06
2018-08-16T14:10:48.228Z,51.04
2018-08-16T14:13:14.265Z,50.98
2018-08-16T14:15:40.223Z,50.95
2018-08-16T14:18:06.196Z,51.13
2018-08-16T14:20:32.177Z,51.19
2018-08-16T14:22:58.153Z,51.06
2018-08-16T14:25:24.128Z,50.99
2018-08-16T14:27:50.131Z,51.00
2018-08-16T14:30:16.112Z,51.19
2018-08-16T14:32:42.094Z,51.09
2018-08-16T14:35:08.105Z,51.10
2018-08-16T14:37:34.082Z,51.10
2018-08-16T14:40:00.064Z,51.07
2018-08-16T14:42:26.070Z,51.01
2018-08-16T14:44:52.052Z,51.03
2018-08-16T14:47:18.017Z,51.18
2018-08-16T14:49:44.003Z,51.06
2018-08-16T14:52:09.979Z,51.23
2018-08-16T14:54:35.949Z,51.01
2018-08-16T14:57:01.970Z,51.06
2018-08-16T14:59:27.946Z,51.08
2018-08-16T15:01:53.925Z,51.00
2018-08-16T15:04:19.909Z,50.98
2018-08-16T15:06:45.889Z,50.99
2018-08-16T15:09:11.886Z,51.07
2018-08-16T15:11:37.876Z,51.14
2018-08-16T15:14:03.863Z,51.13
2018-08-16T15:16:29.835Z,50.91
2018-08-16T15:18:55.850Z,50.89
2018-08-16T15:21:21.832Z,50.90
2018-08-16T15:23:47.820Z,51.02
2018-08-16T15:26:13.792Z,51.08
2018-08-16T15:28:39.777Z,50.92
2018-08-16T15:31:05.766Z,50.98
2018-08-16T15:33:31.747Z,50.76
2018-08-16T15:35:57.746Z,50.99
2018-08-16T15:38:23.729Z,50.91
2018-08-16T15:40:49.712Z,50.74
2018-08-16T15:43:15.686Z,50.71
2018-08-16T15:45:41.685Z,50.90
2018-08-16T15:48:07.808Z,50.62
2018-08-16T15:50:33.708Z,50.61
2018-08-16T15:52:59.715Z,50.80
2018-08-16T15:55:25.701Z,50.63
2018-08-16T15:57:51.642Z,50.54
2018-08-16T16:00:17.639Z,50.55
2018-08-16T16:02:43.615Z,50.51
2018-08-16T16:05:09.600Z,50.61
2018-08-16T16:07:35.587Z,50.48
2018-08-16T16:10:01.573Z,50.48
2018-08-16T16:12:27.547Z,50.66
2018-08-16T16:14:53.524Z,50.46
2018-08-16T16:17:19.545Z,50.48
2018-08-16T16:19:45.495Z,50.47
2018-08-16T16:22:11.477Z,50.46
2018-08-16T16:24:37.476Z,50.48
2018-08-16T16:27:03.456Z,50.44
2018-08-16T16:29:29.438Z,50.41
2018-08-16T16:31:55.421Z,50.43
2018-08-16T16:34:21.402Z,50.46
2018-08-16T16:36:47.382Z,50.40
2018-08-16T16:39:13.364Z,50.39
2018-08-16T16:41:39.356Z,50.39
2018-08-16T16:44:05.340Z,50.41
2018-08-16T16:46:31.359Z,50.39
2018-08-16T16:48:57.338Z,50.46
2018-08-16T16:51:23.317Z,50.48
2018-08-16T16:53:49.302Z,50.46
2018-08-16T16:56:15.273Z,50.45
2018-08-16T16:58:41.254Z,50.59
2018-08-16T17:01:07.240Z,50.49
2018-08-16T17:03:33.226Z,50.52
2018-08-16T17:05:59.206Z,50.53
2018-08-16T17:08:25.191Z,50.67
2018-08-16T17:10:51.181Z,50.51
2018-08-16T17:13:17.196Z,50.69
2018-08-16T17:15:43.178Z,50.63
2018-08-16T17:18:09.148Z,50.83
2018-08-16T17:20:35.141Z,50.78
2018-08-16T17:23:01.126Z,50.86
2018-08-16T17:25:27.112Z,50.75
2018-08-16T17:27:53.106Z,50.86
2018-08-16T17:30:19.099Z,50.87
2018-08-16T17:32:45.078Z,50.81
2018-08-16T17:35:11.101Z,50.93
2018-08-16T17:37:37.082Z,50.77
2018-08-16T17:40:03.061Z,50.89
2018-08-16T17:42:29.040Z,50.92
2018-08-16T17:44:55.018Z,50.90
2018-08-16T17:47:21.001Z,50.95
2018-08-16T17:49:46.987Z,50.77
2018-08-16T17:52:13.055Z,50.97
2018-08-16T17:54:39.017Z,50.81
2018-08-16T17:57:04.974Z,51.02
2018-08-16T17:59:30.958Z,50.97
2018-08-16T18:01:56.940Z,50.86
2018-08-16T18:04:22.925Z,51.00
2018-08-16T18:06:48.913Z,51.02
2018-08-16T18:09:14.883Z,50.95
2018-08-16T18:11:40.862Z,50.92
2018-08-16T18:14:06.843Z,50.92
2018-08-16T18:16:32.825Z,50.99
2018-08-16T18:18:58.809Z,51.01
2018-08-16T18:21:24.786Z,51.09
2018-08-16T18:23:50.769Z,51.02
2018-08-16T18:26:16.755Z,50.93
2018-08-16T18:28:42.762Z,50.96
2018-08-16T18:31:08.734Z,51.04
2018-08-16T18:33:34.709Z,51.02
2018-08-16T18:36:00.775Z,51.06
2018-08-16T18:38:26.680Z,51.13
2018-08-16T18:40:52.654Z,51.12
2018-08-16T18:43:18.638Z,50.94
2018-08-16T18:45:44.618Z,51.10
2018-08-16T18:48:10.751Z,50.91
2018-08-16T18:50:36.702Z,51.04
2018-08-16T18:53:02.680Z,50.98
2018-08-16T18:55:28.661Z,50.98
2018-08-16T18:57:54.633Z,51.02
2018-08-16T19:00:20.630Z,51.01
2018-08-16T19:02:46.620Z,51.07
2018-08-16T19:05:12.651Z,50.92
2018-08-16T19:07:38.625Z,51.13
2018-08-16T19:10:04.615Z,50.97
2018-08-16T19:12:30.608Z,51.01
2018-08-16T19:14:56.599Z,51.07
2018-08-16T19:17:22.587Z,51.14
2018-08-16T19:19:48.581Z,51.04
2018-08-16T19:22:14.558Z,51.07
2018-08-16T19:24:40.541Z,51.15
2018-08-16T19:27:06.524Z,50.94
2018-08-16T19:29:32.528Z,50.96
2018-08-16T19:31:58.517Z,51.10
2018-08-16T19:34:24.501Z,51.00
2018-08-16T19:36:50.530Z,51.13
2018-08-16T19:39:16.521Z,50.99
2018-08-16T19:41:42.522Z,51.08
2018-08-16T19:44:08.496Z,50.93
2018-08-16T19:46:34.500Z,51.15
2018-08-16T19:49:00.497Z,51.00
2018-08-16T19:51:26.508Z,51.16
2018-08-16T19:53:52.489Z,51.14
2018-08-16T19:56:18.478Z,51.13
2018-08-16T19:58:44.472Z,51.15
2018-08-16T20:01:10.548Z,51.18
2018-08-16T20:03:36.498Z,51.16
2018-08-16T20:06:02.444Z,51.13
2018-08-16T20:08:28.434Z,51.16
2018-08-16T20:10:54.441Z,51.08
2018-08-16T20:13:20.422Z,51.11
2018-08-16T20:15:46.402Z,51.19
2018-08-16T20:18:12.459Z,51.16
2018-08-16T20:20:38.390Z,51.01
2018-08-16T20:23:04.731Z,51.20
2018-08-16T20:25:30.678Z,51.18
2018-08-16T20:27:56.680Z,51.19
2018-08-16T20:30:22.731Z,51.16
2018-08-16T20:32:48.644Z,51.13
2018-08-16T20:35:14.625Z,51.17
2018-08-16T20:37:40.614Z,51.17
2018-08-16T20:40:06.591Z,51.17
2018-08-16T20:42:32.579Z,51.12
2018-08-16T20:44:58.594Z,51.20
2018-08-16T20:47:24.580Z,51.20
2018-08-16T20:49:50.553Z,51.19
2018-08-16T20:52:16.534Z,51.17
2018-08-16T20:54:42.510Z,51.15
2018-08-16T20:57:08.490Z,51.22
2018-08-16T20:59:34.483Z,51.18
2018-08-16T21:02:00.470Z,51.15
2018-08-16T21:04:26.444Z,51.09
2018-08-16T21:06:52.427Z,51.10
2018-08-16T21:09:18.409Z,51.17
2018-08-16T21:11:44.390Z,51.14
2018-08-16T21:14:10.372Z,51.18
2018-08-16T21:16:36.352Z,51.06
2018-08-16T21:19:02.329Z,51.07
2018-08-16T21:21:28.316Z,51.07
2018-08-16T21:23:54.289Z,51.03
2018-08-16T21:26:20.277Z,51.17
2018-08-16T21:28:46.262Z,51.12
2018-08-16T21:31:12.255Z,51.18
2018-08-16T21:33:38.229Z,51.14
2018-08-16T21:36:04.212Z,51.09
2018-08-16T21:38:30.197Z,51.20
2018-08-16T21:40:56.178Z,51.14
2018-08-16T21:43:22.152Z,51.10
2018-08-16T21:45:48.133Z,51.05
2018-08-16T21:48:14.109Z,51.18
2018-08-16T21:50:40.086Z,51.17
2018-08-16T21:53:06.068Z,51.18
2018-08-16T21:55:32.081Z,51.14
2018-08-16T21:57:58.052Z,51.10
2018-08-16T22:00:24.069Z,51.04
2018-08-16T22:02:50.053Z,51.14
2018-08-16T22:05:16.034Z,50.97
2018-08-16T22:07:42.012Z,51.14
2018-08-16T22:10:07.988Z,51.01
2018-08-16T22:12:33.960Z,51.13
2018-08-16T22:14:59.984Z,51.12
2018-08-16T22:17:25.959Z,51.14
2018-08-16T22:19:51.936Z,51.10
2018-08-16T22:22:17.917Z,51.09
2018-08-16T22:24:43.901Z,51.10
2018-08-16T22:27:09.879Z,51.16
2018-08-16T22:29:35.854Z,50.96
2018-08-16T22:32:01.836Z,51.15
2018-08-16T22:34:27.819Z,51.05
2018-08-16T22:36:53.812Z,50.89
2018-08-16T22:39:19.793Z,51.19
2018-08-16T22:41:45.767Z,50.92
2018-08-16T22:44:11.750Z,51.14
2018-08-16T22:46:37.729Z,51.03
2018-08-16T22:49:03.708Z,51.06
2018-08-16T22:51:29.687Z,50.86
2018-08-16T22:53:55.670Z,51.08
2018-08-16T22:56:21.646Z,50.91
2018-08-16T22:58:47.625Z,51.00
2018-08-16T23:01:13.602Z,50.92
2018-08-16T23:03:39.585Z,50.87
2018-08-16T23:06:05.560Z,50.93
2018-08-16T23:08:31.539Z,51.02
2018-08-16T23:10:57.512Z,51.03
2018-08-16T23:13:23.495Z,50.95
2018-08-16T23:15:49.474Z,50.97
2018-08-16T23:18:15.451Z,50.87
2018-08-16T23:20:41.427Z,50.90
2018-08-16T23:23:07.404Z,50.84
2018-08-16T23:25:33.381Z,50.89
2018-08-16T23:27:59.377Z,50.89
2018-08-16T23:30:25.355Z,50.92
2018-08-16T23:32:51.333Z,50.80
2018-08-16T23:35:17.316Z,50.78
2018-08-16T23:37:43.294Z,50.81
2018-08-16T23:40:09.273Z,50.74
2018-08-16T23:42:35.264Z,50.81
2018-08-16T23:45:01.250Z,50.83
2018-08-16T23:47:27.244Z,50.97
2018-08-16T23:49:53.221Z,50.82
2018-08-16T23:52:19.194Z,50.78
2018-08-16T23:54:45.181Z,50.84
2018-08-16T23:57:11.181Z,50.78
2018-08-16T23:59:37.177Z,50.91
